createdAt,value
2023-07-11T00:00:24.170Z,26.60
2023-07-11T00:02:53.231Z,26.50
2023-07-11T00:05:22.160Z,26.50
2023-07-11T00:07:50.882Z,26.40
2023-07-11T00:10:21.568Z,26.40
2023-07-11T00:12:50.547Z,26.30
2023-07-11T00:15:19.576Z,26.30
2023-07-11T00:17:49.834Z,26.40
2023-07-11T00:20:19.493Z,26.30
2023-07-11T00:22:48.429Z,26.30
2023-07-11T00:25:17.482Z,26.20
2023-07-11T00:27:47.532Z,26.30
2023-07-11T00:30:16.396Z,26.20
2023-07-11T00:32:45.091Z,26.10
2023-07-11T00:35:13.975Z,26.10
2023-07-11T00:37:42.750Z,26.10
2023-07-11T00:40:12.978Z,26.10
2023-07-11T00:42:43.214Z,26.00
2023-07-11T00:45:45.335Z,26.00
2023-07-11T00:48:15.628Z,25.90
2023-07-11T00:50:46.113Z,26.00
2023-07-11T00:53:15.309Z,25.90
2023-07-11T00:55:44.697Z,25.90
2023-07-11T00:58:14.419Z,25.90
2023-07-11T01:00:43.356Z,25.80
2023-07-11T01:03:12.395Z,25.80
2023-07-11T01:05:42.638Z,25.80
2023-07-11T01:08:12.531Z,25.70
2023-07-11T01:10:41.285Z,25.70
2023-07-11T01:13:11.612Z,25.70
2023-07-11T01:15:40.322Z,25.60
2023-07-11T01:18:09.932Z,25.70
2023-07-11T01:20:38.688Z,25.60
2023-07-11T01:23:08.794Z,25.60
2023-07-11T01:25:39.395Z,25.60
2023-07-11T01:28:07.915Z,25.50
2023-07-11T01:30:36.522Z,25.50
2023-07-11T01:33:06.009Z,25.50
2023-07-11T01:35:34.512Z,25.50
2023-07-11T01:38:03.695Z,25.50
2023-07-11T01:40:33.490Z,25.50
2023-07-11T01:43:03.231Z,25.40
2023-07-11T01:45:31.812Z,25.40
2023-07-11T01:48:00.536Z,25.40
2023-07-11T01:50:29.917Z,25.30
2023-07-11T01:52:58.337Z,25.20
2023-07-11T01:55:27.120Z,25.20
2023-07-11T01:57:57.013Z,25.20
2023-07-11T02:00:25.765Z,25.10
2023-07-11T02:02:54.425Z,25.20
2023-07-11T02:05:24.636Z,25.20
2023-07-11T02:07:53.308Z,25.10
2023-07-11T02:10:21.945Z,25.10
2023-07-11T02:13:11.371Z,25.00
2023-07-11T02:15:40.435Z,25.10
2023-07-11T02:18:09.260Z,25.00
2023-07-11T02:20:42.149Z,25.00
2023-07-11T02:23:11.207Z,24.90
2023-07-11T02:25:42.248Z,24.90
2023-07-11T02:28:12.638Z,24.90
2023-07-11T02:30:42.823Z,24.90
2023-07-11T02:33:11.193Z,24.90
2023-07-11T02:35:39.768Z,24.80
2023-07-11T02:38:08.599Z,24.80
2023-07-11T02:40:37.226Z,24.80
2023-07-11T02:43:05.462Z,24.80
2023-07-11T02:45:35.458Z,24.80
2023-07-11T02:48:03.974Z,24.80
2023-07-11T02:50:32.434Z,24.70
2023-07-11T02:53:01.044Z,24.70
2023-07-11T02:55:29.635Z,24.60
2023-07-11T02:57:57.977Z,24.70
2023-07-11T03:00:26.590Z,24.70
2023-07-11T03:02:56.501Z,24.60
2023-07-11T03:05:25.145Z,24.50
2023-07-11T03:07:53.824Z,24.60
2023-07-11T03:10:22.267Z,24.50
2023-07-11T03:12:50.528Z,24.50
2023-07-11T03:15:19.037Z,24.50
2023-07-11T03:17:47.500Z,24.50
2023-07-11T03:20:17.326Z,24.50
2023-07-11T03:22:45.747Z,24.40
2023-07-11T03:25:14.186Z,24.50
2023-07-11T03:27:42.467Z,24.40
2023-07-11T03:30:11.202Z,24.40
2023-07-11T03:32:39.539Z,24.40
2023-07-11T03:35:08.650Z,24.30
2023-07-11T03:37:38.240Z,24.40
2023-07-11T03:40:08.385Z,24.30
2023-07-11T03:42:36.750Z,24.40
2023-07-11T03:45:05.977Z,24.40
2023-07-11T03:47:34.556Z,24.30
2023-07-11T03:50:02.807Z,24.30
2023-07-11T03:52:32.085Z,24.20
2023-07-11T03:55:01.786Z,24.30
2023-07-11T03:57:30.340Z,24.20
2023-07-11T03:59:58.631Z,24.20
2023-07-11T04:02:27.286Z,24.30
2023-07-11T04:04:55.824Z,24.30
2023-07-11T04:07:25.042Z,24.30
2023-07-11T04:09:53.683Z,24.20
2023-07-11T04:12:24.016Z,24.30
2023-07-11T04:14:53.458Z,24.30
2023-07-11T04:17:21.873Z,24.30
2023-07-11T04:19:51.019Z,24.30
2023-07-11T04:22:19.933Z,24.30
2023-07-11T04:24:48.325Z,24.40
2023-07-11T04:27:16.713Z,24.40
2023-07-11T04:29:46.326Z,24.40
2023-07-11T04:32:15.020Z,24.50
2023-07-11T04:34:43.421Z,24.50
2023-07-11T04:37:11.728Z,24.50
2023-07-11T04:39:41.092Z,24.50
2023-07-11T04:42:09.422Z,24.60
2023-07-11T04:44:37.908Z,24.70
2023-07-11T04:47:07.985Z,24.70
2023-07-11T04:49:36.724Z,24.70
2023-07-11T04:52:05.674Z,24.70
2023-07-11T04:54:34.092Z,24.80
2023-07-11T04:57:05.105Z,24.90
2023-07-11T04:59:33.492Z,24.90
2023-07-11T05:02:01.818Z,24.90
2023-07-11T05:04:31.718Z,24.90
2023-07-11T05:07:01.957Z,25.00
2023-07-11T05:09:30.723Z,25.00
2023-07-11T05:12:00.575Z,25.00
2023-07-11T05:14:29.362Z,25.10
2023-07-11T05:16:57.694Z,25.10
2023-07-11T05:19:26.242Z,25.30
2023-07-11T05:21:55.941Z,25.20
2023-07-11T05:24:24.365Z,25.30
2023-07-11T05:26:53.288Z,25.40
2023-07-11T05:29:21.790Z,25.60
2023-07-11T05:31:50.108Z,25.50
2023-07-11T05:34:18.477Z,25.60
2023-07-11T05:36:46.911Z,25.70
2023-07-11T05:39:18.144Z,25.70
2023-07-11T05:41:49.477Z,25.80
2023-07-11T05:44:18.644Z,25.80
2023-07-11T05:46:48.422Z,25.90
2023-07-11T05:49:17.308Z,26.00
2023-07-11T05:51:45.752Z,26.00
2023-07-11T05:54:14.368Z,26.10
2023-07-11T05:56:44.411Z,26.20
2023-07-11T05:59:12.950Z,26.30
2023-07-11T06:01:42.329Z,26.40
2023-07-11T06:04:14.283Z,26.50
2023-07-11T06:06:44.143Z,26.60
2023-07-11T06:09:15.201Z,26.70
2023-07-11T06:11:46.893Z,26.70
2023-07-11T06:14:15.786Z,26.80
2023-07-11T06:16:48.637Z,26.90
2023-07-11T06:19:18.957Z,27.10
2023-07-11T06:21:47.633Z,27.20
2023-07-11T06:24:15.899Z,27.20
2023-07-11T06:26:45.524Z,27.40
2023-07-11T06:29:14.137Z,27.50
2023-07-11T06:31:42.738Z,27.50
2023-07-11T06:34:11.081Z,27.50
2023-07-11T06:36:39.562Z,27.60
2023-07-11T06:39:07.920Z,27.70
2023-07-11T06:41:36.284Z,27.90
2023-07-11T06:44:07.686Z,28.00
2023-07-11T06:46:36.362Z,28.00
2023-07-11T06:49:05.055Z,28.20
2023-07-11T06:51:34.190Z,28.30
2023-07-11T06:54:03.458Z,28.40
2023-07-11T06:56:34.362Z,28.50
2023-07-11T06:59:02.758Z,28.60
2023-07-11T07:01:37.286Z,28.70
2023-07-11T07:04:07.089Z,28.80
2023-07-11T07:06:36.671Z,28.90
2023-07-11T07:09:05.982Z,29.00
2023-07-11T07:11:36.518Z,29.10
2023-07-11T07:14:07.020Z,29.10
2023-07-11T07:16:38.098Z,29.30
2023-07-11T07:19:07.668Z,29.40
2023-07-11T07:21:35.975Z,29.60
2023-07-11T07:24:04.497Z,29.60
2023-07-11T07:26:32.903Z,29.60
2023-07-11T07:29:01.607Z,29.70
2023-07-11T07:31:30.913Z,29.90
2023-07-11T07:34:00.773Z,30.10
2023-07-11T07:36:29.245Z,30.30
2023-07-11T07:38:57.472Z,30.50
2023-07-11T07:41:28.023Z,30.60
2023-07-11T07:43:56.377Z,30.60
2023-07-11T07:46:24.869Z,30.70
2023-07-11T07:48:53.340Z,30.80
2023-07-11T07:51:23.067Z,30.90
2023-07-11T07:53:51.370Z,30.90
2023-07-11T07:56:22.140Z,31.10
2023-07-11T07:58:51.785Z,31.20
2023-07-11T08:01:22.154Z,31.30
2023-07-11T08:03:51.008Z,31.40
2023-07-11T08:06:20.439Z,31.60
2023-07-11T08:08:51.776Z,31.60
2023-07-11T08:11:22.589Z,31.90
2023-07-11T08:16:31.502Z,32.00
2023-07-11T08:19:01.472Z,32.10
2023-07-11T08:21:29.984Z,32.20
2023-07-11T08:23:59.828Z,32.30
2023-07-11T08:26:28.610Z,32.40
2023-07-11T08:28:58.039Z,32.60
2023-07-11T08:31:27.058Z,32.70
2023-07-11T08:33:55.892Z,32.80
2023-07-11T08:36:24.324Z,32.90
2023-07-11T08:38:52.553Z,33.00
2023-07-11T08:41:29.600Z,33.00
2023-07-11T08:44:02.816Z,33.10
2023-07-11T08:46:35.506Z,33.20
2023-07-11T08:49:05.069Z,33.30
2023-07-11T08:51:38.326Z,33.30
2023-07-11T08:54:12.412Z,33.40
2023-07-11T08:56:44.476Z,33.40
2023-07-11T08:59:25.814Z,33.60
2023-07-11T09:02:03.673Z,33.70
2023-07-11T09:04:34.592Z,33.70
2023-07-11T09:07:12.590Z,33.80
2023-07-11T09:09:45.741Z,34.00
2023-07-11T09:12:24.992Z,34.10
2023-07-11T09:15:02.417Z,34.30
2023-07-11T09:17:40.875Z,34.40
2023-07-11T09:20:23.724Z,34.40
2023-07-11T09:23:00.874Z,34.60
2023-07-11T09:25:38.169Z,34.70
2023-07-11T09:28:12.898Z,34.80
2023-07-11T09:30:49.626Z,35.00
2023-07-11T09:33:23.789Z,35.00
2023-07-11T09:35:54.310Z,35.10
2023-07-11T09:38:28.291Z,35.10
2023-07-11T09:41:03.096Z,35.40
2023-07-11T09:43:32.677Z,35.40
2023-07-11T09:46:01.363Z,35.50
2023-07-11T09:48:35.761Z,35.40
2023-07-11T09:51:16.098Z,35.50
2023-07-11T09:53:45.935Z,35.80
2023-07-11T09:56:17.572Z,35.90
2023-07-11T09:58:52.124Z,36.20
2023-07-11T10:01:25.796Z,36.10
2023-07-11T10:03:57.741Z,36.30
2023-07-11T10:09:08.632Z,36.50
2023-07-11T10:11:37.029Z,36.70
2023-07-11T10:14:07.403Z,36.70
2023-07-11T10:16:36.991Z,36.70
2023-07-11T10:19:05.464Z,36.90
2023-07-11T10:21:40.707Z,36.90
2023-07-11T10:24:17.028Z,37.00
2023-07-11T10:26:49.079Z,37.10
2023-07-11T10:29:25.422Z,37.10
2023-07-11T10:31:58.960Z,37.40
2023-07-11T10:34:31.803Z,37.40
2023-07-11T10:37:07.107Z,37.50
2023-07-11T10:39:44.432Z,37.50
2023-07-11T10:42:25.900Z,37.60
2023-07-11T10:45:03.970Z,37.60
2023-07-11T10:47:40.059Z,37.60
2023-07-11T10:50:31.573Z,37.60
2023-07-11T10:53:12.517Z,37.50
2023-07-11T10:55:53.296Z,37.60
2023-07-11T10:58:26.137Z,37.60
2023-07-11T11:01:31.568Z,37.70
2023-07-11T11:04:16.855Z,37.70
2023-07-11T11:06:55.597Z,37.90
2023-07-11T11:09:38.151Z,38.00
2023-07-11T11:12:18.022Z,38.00
2023-07-11T11:14:55.570Z,38.20
2023-07-11T11:17:39.074Z,38.20
2023-07-11T11:20:15.442Z,38.30
2023-07-11T11:22:57.624Z,38.40
2023-07-11T11:25:31.008Z,38.50
2023-07-11T11:28:12.596Z,38.60
2023-07-11T11:30:50.185Z,38.60
2023-07-11T11:33:38.071Z,38.70
2023-07-11T11:36:18.094Z,38.70
2023-07-11T11:39:11.666Z,38.90
2023-07-11T11:41:46.439Z,38.90
2023-07-11T11:46:56.881Z,38.90
2023-07-11T11:49:41.289Z,39.00
2023-07-11T11:52:14.582Z,39.00
2023-07-11T11:54:45.734Z,39.20
2023-07-11T11:57:21.994Z,39.20
2023-07-11T11:59:50.962Z,39.30
2023-07-11T12:02:29.360Z,39.30
2023-07-11T12:05:05.706Z,38.80
2023-07-11T12:07:39.056Z,38.90
2023-07-11T12:10:21.192Z,38.70
2023-07-11T12:13:06.564Z,38.80
2023-07-11T12:15:39.848Z,38.90
2023-07-11T12:18:29.660Z,39.00
2023-07-11T12:21:26.037Z,39.00
2023-07-11T12:24:41.364Z,39.30
2023-07-11T12:27:11.517Z,39.40
2023-07-11T12:29:50.660Z,39.70
2023-07-11T12:32:41.329Z,39.70
2023-07-11T12:35:19.062Z,39.50
2023-07-11T12:38:07.553Z,39.70
2023-07-11T12:40:43.212Z,39.90
2023-07-11T12:43:20.209Z,39.80
2023-07-11T12:45:52.179Z,39.70
2023-07-11T12:48:23.815Z,39.90
2023-07-11T12:50:56.085Z,39.70
2023-07-11T12:53:26.071Z,39.60
2023-07-11T12:55:56.636Z,39.70
2023-07-11T12:58:30.778Z,39.60
2023-07-11T13:01:02.332Z,39.80
2023-07-11T13:03:35.092Z,39.90
2023-07-11T13:06:21.803Z,39.90
2023-07-11T13:08:55.461Z,40.20
2023-07-11T13:11:30.900Z,40.10
2023-07-11T13:14:01.455Z,40.20
2023-07-11T13:16:36.456Z,40.40
2023-07-11T13:19:05.757Z,40.50
2023-07-11T13:21:36.207Z,40.50
2023-07-11T13:24:15.940Z,40.50
2023-07-11T13:26:48.568Z,40.30
2023-07-11T13:29:23.933Z,40.40
2023-07-11T13:32:15.429Z,40.50
2023-07-11T13:34:58.617Z,40.60
2023-07-11T13:37:35.648Z,40.60
2023-07-11T13:40:08.100Z,40.40
2023-07-11T13:42:42.378Z,40.50
2023-07-11T13:45:20.026Z,40.70
2023-07-11T13:47:50.907Z,40.60
2023-07-11T13:50:27.827Z,40.60
2023-07-11T13:52:58.048Z,40.70
2023-07-11T13:55:38.135Z,40.50
2023-07-11T13:58:08.627Z,40.00
2023-07-11T14:00:38.083Z,40.00
2023-07-11T14:03:12.874Z,39.70
2023-07-11T14:05:48.084Z,39.40
2023-07-11T14:08:18.358Z,39.40
2023-07-11T14:10:49.608Z,39.40
2023-07-11T14:13:23.450Z,39.50
2023-07-11T14:15:52.262Z,39.70
2023-07-11T14:18:21.140Z,39.70
2023-07-11T14:20:49.747Z,39.80
2023-07-11T14:23:22.975Z,39.90
2023-07-11T14:25:53.697Z,40.10
2023-07-11T14:28:22.784Z,40.00
2023-07-11T14:30:52.805Z,40.00
2023-07-11T14:33:22.672Z,40.10
2023-07-11T14:35:51.481Z,40.00
2023-07-11T14:38:25.154Z,40.00
2023-07-11T14:40:56.551Z,40.00
2023-07-11T14:43:28.072Z,40.00
2023-07-11T14:45:56.513Z,39.70
2023-07-11T14:48:27.519Z,39.50
2023-07-11T14:51:01.039Z,39.40
2023-07-11T14:53:34.430Z,39.30
2023-07-11T14:58:38.701Z,39.30
2023-07-11T15:01:12.867Z,39.70
2023-07-11T15:05:58.310Z,39.70
2023-07-11T15:06:52.860Z,39.70
2023-07-11T15:11:57.067Z,39.70
2023-07-11T15:16:59.115Z,39.60
2023-07-11T15:19:28.611Z,39.60
2023-07-11T15:22:02.263Z,39.50
2023-07-11T15:24:35.790Z,39.90
2023-07-11T15:27:06.195Z,39.90
2023-07-11T15:29:34.628Z,39.60
2023-07-11T15:32:03.906Z,39.60
2023-07-11T15:34:32.469Z,39.50
2023-07-11T15:37:00.955Z,39.60
2023-07-11T15:39:29.546Z,39.50
2023-07-11T15:41:59.457Z,39.70
2023-07-11T15:45:04.939Z,39.80
2023-07-11T15:47:33.617Z,39.80
2023-07-11T15:50:02.201Z,40.10
2023-07-11T15:52:30.627Z,39.90
2023-07-11T15:54:59.391Z,39.90
2023-07-11T15:57:29.900Z,39.80
2023-07-11T16:00:01.438Z,39.80
2023-07-11T16:02:29.747Z,40.00
2023-07-11T16:04:58.326Z,39.80
2023-07-11T16:07:27.745Z,39.80
2023-07-11T16:09:56.561Z,39.90
2023-07-11T16:12:24.899Z,39.80
2023-07-11T16:14:53.445Z,39.70
2023-07-11T16:17:23.716Z,39.80
2023-07-11T16:19:54.213Z,40.00
2023-07-11T16:22:24.684Z,39.80
2023-07-11T16:24:54.467Z,39.60
2023-07-11T16:27:22.946Z,39.70
2023-07-11T16:29:51.776Z,39.80
2023-07-11T16:32:22.759Z,39.60
2023-07-11T16:34:52.836Z,39.50
2023-07-11T16:37:22.398Z,39.50
2023-07-11T16:39:53.245Z,39.50
2023-07-11T16:42:25.229Z,39.40
2023-07-11T16:44:58.745Z,39.40
2023-07-11T16:47:27.928Z,39.30
2023-07-11T16:50:05.407Z,39.40
2023-07-11T16:52:37.803Z,39.20
2023-07-11T16:55:12.554Z,39.20
2023-07-11T16:57:44.608Z,39.10
2023-07-11T17:00:20.844Z,39.00
2023-07-11T17:02:50.698Z,38.90
2023-07-11T17:05:22.252Z,38.90
2023-07-11T17:07:51.760Z,38.70
2023-07-11T17:10:20.222Z,38.70
2023-07-11T17:12:49.281Z,38.70
2023-07-11T17:15:19.272Z,38.80
2023-07-11T17:17:47.875Z,38.60
2023-07-11T17:20:22.196Z,38.60
2023-07-11T17:22:50.962Z,38.60
2023-07-11T17:25:20.984Z,38.70
2023-07-11T17:27:52.712Z,38.50
2023-07-11T17:30:23.068Z,38.50
2023-07-11T17:32:51.423Z,38.50
2023-07-11T17:35:21.277Z,38.50
2023-07-11T17:37:49.691Z,38.40
2023-07-11T17:40:21.027Z,38.20
2023-07-11T17:42:49.471Z,38.30
2023-07-11T17:45:22.068Z,38.00
2023-07-11T17:48:18.102Z,37.90
2023-07-11T17:50:51.204Z,37.80
2023-07-11T17:53:20.557Z,37.70
2023-07-11T17:55:50.122Z,37.50
2023-07-11T17:58:22.806Z,37.30
2023-07-11T18:00:52.541Z,37.20
2023-07-11T18:03:22.264Z,37.10
2023-07-11T18:05:53.553Z,37.00
2023-07-11T18:08:29.350Z,36.80
2023-07-11T18:10:57.828Z,36.80
2023-07-11T18:13:26.943Z,36.60
2023-07-11T18:15:56.408Z,36.50
2023-07-11T18:18:28.216Z,36.30
2023-07-11T18:21:01.461Z,36.10
2023-07-11T18:23:35.378Z,36.00
2023-07-11T18:26:05.046Z,35.90
2023-07-11T18:28:33.520Z,35.80
2023-07-11T18:31:01.896Z,35.90
2023-07-11T18:33:30.463Z,35.60
2023-07-11T18:36:01.527Z,35.60
2023-07-11T18:38:31.091Z,35.50
2023-07-11T18:40:59.308Z,35.40
2023-07-11T18:43:28.620Z,35.30
2023-07-11T18:45:57.054Z,35.30
2023-07-11T18:48:25.778Z,35.20
2023-07-11T18:50:59.611Z,35.10
2023-07-11T18:53:30.569Z,35.00
2023-07-11T18:56:03.666Z,34.90
2023-07-11T18:58:33.626Z,34.70
2023-07-11T19:01:02.298Z,34.70
2023-07-11T19:03:32.892Z,34.70
2023-07-11T19:06:03.039Z,34.50
2023-07-11T19:08:33.358Z,34.40
2023-07-11T19:11:01.686Z,34.20
2023-07-11T19:13:29.974Z,34.30
2023-07-11T19:15:58.354Z,34.20
2023-07-11T19:18:27.625Z,34.10
2023-07-11T19:20:56.288Z,34.10
2023-07-11T19:23:26.918Z,33.90
2023-07-11T19:25:58.276Z,33.80
2023-07-11T19:28:30.848Z,33.70
2023-07-11T19:31:02.379Z,33.70
2023-07-11T19:33:31.115Z,33.60
2023-07-11T19:36:01.130Z,33.50
2023-07-11T19:38:31.807Z,33.50
2023-07-11T19:41:01.773Z,33.50
2023-07-11T19:43:30.279Z,33.30
2023-07-11T19:45:59.950Z,33.30
2023-07-11T19:48:29.959Z,33.30
2023-07-11T19:51:01.467Z,33.20
2023-07-11T19:53:32.512Z,33.10
2023-07-11T19:56:17.178Z,33.10
2023-07-11T19:58:46.139Z,33.00
2023-07-11T20:01:14.579Z,32.90
2023-07-11T20:03:43.171Z,32.80
2023-07-11T20:06:18.764Z,32.80
2023-07-11T20:08:48.132Z,32.70
2023-07-11T20:11:19.046Z,32.70
2023-07-11T20:13:47.983Z,32.70
2023-07-11T20:16:19.046Z,32.60
2023-07-11T20:18:47.794Z,32.60
2023-07-11T20:21:20.751Z,32.50
2023-07-11T20:23:52.249Z,32.50
2023-07-11T20:26:24.752Z,32.40
2023-07-11T20:28:54.314Z,32.30
2023-07-11T20:31:23.613Z,32.30
2023-07-11T20:33:52.081Z,32.30
2023-07-11T20:36:23.013Z,32.20
2023-07-11T20:38:51.760Z,32.10
2023-07-11T20:41:20.691Z,32.10
2023-07-11T20:43:50.448Z,32.10
2023-07-11T20:46:21.753Z,32.00
2023-07-11T20:48:51.605Z,31.90
2023-07-11T20:51:22.026Z,31.90
2023-07-11T20:53:50.586Z,31.90
2023-07-11T20:56:21.421Z,31.80
2023-07-11T20:58:53.632Z,31.80
2023-07-11T21:01:23.458Z,31.70
2023-07-11T21:03:52.299Z,31.60
2023-07-11T21:06:29.193Z,31.70
2023-07-11T21:08:57.538Z,31.60
2023-07-11T21:11:26.027Z,31.50
2023-07-11T21:13:56.668Z,31.50
2023-07-11T21:16:27.642Z,31.50
2023-07-11T21:18:56.772Z,31.40
2023-07-11T21:21:25.410Z,31.40
2023-07-11T21:23:53.718Z,31.40
2023-07-11T21:26:23.373Z,31.30
2023-07-11T21:28:53.012Z,31.30
2023-07-11T21:31:24.783Z,31.20
2023-07-11T21:33:53.505Z,31.20
2023-07-11T21:36:23.285Z,31.10
2023-07-11T21:38:52.929Z,31.10
2023-07-11T21:41:23.622Z,31.10
2023-07-11T21:43:52.296Z,31.00
2023-07-11T21:46:24.272Z,31.00
2023-07-11T21:48:52.568Z,31.00
2023-07-11T21:51:21.804Z,30.90
2023-07-11T21:53:50.411Z,30.80
2023-07-11T21:56:25.395Z,30.80
2023-07-11T21:58:58.001Z,30.80
2023-07-11T22:01:29.653Z,30.80
2023-07-11T22:03:58.301Z,30.70
2023-07-11T22:06:31.624Z,30.70
2023-07-11T22:09:00.888Z,30.80
2023-07-11T22:11:30.277Z,30.70
2023-07-11T22:13:59.130Z,30.60
2023-07-11T22:16:32.236Z,30.70
2023-07-11T22:19:02.329Z,30.50
2023-07-11T22:21:30.973Z,30.50
2023-07-11T22:23:59.975Z,30.50
2023-07-11T22:26:32.876Z,30.40
2023-07-11T22:29:03.325Z,30.50
2023-07-11T22:31:33.308Z,30.40
2023-07-11T22:34:01.914Z,30.40
2023-07-11T22:40:34.188Z,30.40
2023-07-11T22:43:10.151Z,30.20
2023-07-11T22:45:45.849Z,30.20
2023-07-11T22:48:18.058Z,30.10
2023-07-11T22:50:48.601Z,30.00
2023-07-11T22:53:20.143Z,30.10
2023-07-11T22:55:51.884Z,30.00
2023-07-11T22:58:24.199Z,29.90
2023-07-11T23:00:54.596Z,29.90
2023-07-11T23:03:25.857Z,29.80
2023-07-11T23:05:58.171Z,29.90
2023-07-11T23:08:30.281Z,29.80
2023-07-11T23:11:00.258Z,29.80
2023-07-11T23:13:29.142Z,29.80
2023-07-11T23:15:59.862Z,29.70
2023-07-11T23:18:30.072Z,29.80
2023-07-11T23:21:00.213Z,29.80
2023-07-11T23:23:30.703Z,29.70
2023-07-11T23:26:01.243Z,29.70
2023-07-11T23:28:32.148Z,29.80
2023-07-11T23:31:04.307Z,29.80
2023-07-11T23:33:34.527Z,29.70
2023-07-11T23:36:12.336Z,29.70
2023-07-11T23:38:40.822Z,29.70
2023-07-11T23:41:15.427Z,29.70
2023-07-11T23:43:45.922Z,29.60
2023-07-11T23:46:23.538Z,29.60
2023-07-11T23:48:54.302Z,29.70
2023-07-11T23:51:24.459Z,29.60
2023-07-11T23:53:53.827Z,29.50
2023-07-11T23:56:24.025Z,29.60
2023-07-11T23:58:54.953Z,29.60
